sensor_id;sensor_type;location;lat;lon;timestamp;temperature;humidity
6843;DHT22;3460;52.028;8.916;2023-10-13T00:01:10;15.60;99.90
6843;DHT22;3460;52.028;8.916;2023-10-13T00:03:39;15.60;99.90
6843;DHT22;3460;52.028;8.916;2023-10-13T00:06:06;15.60;99.90
6843;DHT22;3460;52.028;8.916;2023-10-13T00:08:34;15.60;99.90
6843;DHT22;3460;52.028;8.916;2023-10-13T00:11:02;15.60;99.90
6843;DHT22;3460;52.028;8.916;2023-10-13T00:13:30;15.60;99.90
6843;DHT22;3460;52.028;8.916;2023-10-13T00:16:06;15.70;99.90
6843;DHT22;3460;52.028;8.916;2023-10-13T00:18:36;15.70;99.90
6843;DHT22;3460;52.028;8.916;2023-10-13T00:21:07;15.70;99.90
6843;DHT22;3460;52.028;8.916;2023-10-13T00:23:39;15.70;99.90
6843;DHT22;3460;52.028;8.916;2023-10-13T00:26:09;15.70;99.90
6843;DHT22;3460;52.028;8.916;2023-10-13T00:28:36;15.70;99.90
6843;DHT22;3460;52.028;8.916;2023-10-13T00:31:11;15.70;99.90
6843;DHT22;3460;52.028;8.916;2023-10-13T00:33:41;15.70;99.90
6843;DHT22;3460;52.028;8.916;2023-10-13T00:36:08;15.70;99.90
6843;DHT22;3460;52.028;8.916;2023-10-13T00:38:42;15.70;99.90
6843;DHT22;3460;52.028;8.916;2023-10-13T00:41:13;15.70;99.90
6843;DHT22;3460;52.028;8.916;2023-10-13T00:43:45;15.70;99.90
6843;DHT22;3460;52.028;8.916;2023-10-13T00:46:31;15.70;99.90
6843;DHT22;3460;52.028;8.916;2023-10-13T00:49:01;15.70;99.90
6843;DHT22;3460;52.028;8.916;2023-10-13T00:51:30;15.70;99.90
6843;DHT22;3460;52.028;8.916;2023-10-13T00:54:03;15.70;99.90
6843;DHT22;3460;52.028;8.916;2023-10-13T00:56:33;15.80;99.90
6843;DHT22;3460;52.028;8.916;2023-10-13T00:59:06;15.80;99.90
6843;DHT22;3460;52.028;8.916;2023-10-13T01:01:35;15.70;99.90
6843;DHT22;3460;52.028;8.916;2023-10-13T01:04:04;15.80;99.90
6843;DHT22;3460;52.028;8.916;2023-10-13T01:06:34;15.80;99.90
6843;DHT22;3460;52.028;8.916;2023-10-13T01:09:04;15.80;99.90
6843;DHT22;3460;52.028;8.916;2023-10-13T01:11:38;15.80;99.90
6843;DHT22;3460;52.028;8.916;2023-10-13T01:14:04;15.80;99.90
6843;DHT22;3460;52.028;8.916;2023-10-13T01:16:32;15.80;99.90
6843;DHT22;3460;52.028;8.916;2023-10-13T01:18:59;15.80;99.90
6843;DHT22;3460;52.028;8.916;2023-10-13T01:21:26;15.80;99.90
6843;DHT22;3460;52.028;8.916;2023-10-13T01:23:56;15.80;99.90
6843;DHT22;3460;52.028;8.916;2023-10-13T01:26:22;15.80;99.90
6843;DHT22;3460;52.028;8.916;2023-10-13T01:28:51;15.80;99.90
6843;DHT22;3460;52.028;8.916;2023-10-13T01:31:19;15.80;99.90
6843;DHT22;3460;52.028;8.916;2023-10-13T01:33:54;15.90;99.90
6843;DHT22;3460;52.028;8.916;2023-10-13T01:36:21;15.80;99.90
6843;DHT22;3460;52.028;8.916;2023-10-13T01:38:48;15.80;99.90
6843;DHT22;3460;52.028;8.916;2023-10-13T01:41:17;15.90;99.90
6843;DHT22;3460;52.028;8.916;2023-10-13T01:43:43;15.90;99.90
6843;DHT22;3460;52.028;8.916;2023-10-13T01:46:10;15.90;99.90
6843;DHT22;3460;52.028;8.916;2023-10-13T01:48:39;15.90;99.90
6843;DHT22;3460;52.028;8.916;2023-10-13T01:51:06;15.90;99.90
6843;DHT22;3460;52.028;8.916;2023-10-13T01:53:36;15.90;99.90
6843;DHT22;3460;52.028;8.916;2023-10-13T01:56:02;15.90;99.90
6843;DHT22;3460;52.028;8.916;2023-10-13T01:58:33;15.90;99.90
6843;DHT22;3460;52.028;8.916;2023-10-13T02:00:59;15.90;99.90
6843;DHT22;3460;52.028;8.916;2023-10-13T02:03:27;15.90;99.90
6843;DHT22;3460;52.028;8.916;2023-10-13T02:05:55;15.90;99.90
6843;DHT22;3460;52.028;8.916;2023-10-13T02:08:30;15.90;99.90
6843;DHT22;3460;52.028;8.916;2023-10-13T02:10:57;15.90;99.90
6843;DHT22;3460;52.028;8.916;2023-10-13T02:13:25;15.90;99.90
6843;DHT22;3460;52.028;8.916;2023-10-13T02:15:55;15.90;99.90
6843;DHT22;3460;52.028;8.916;2023-10-13T02:18:24;15.90;99.90
6843;DHT22;3460;52.028;8.916;2023-10-13T02:20:53;15.90;99.90
6843;DHT22;3460;52.028;8.916;2023-10-13T02:23:29;15.90;99.90
6843;DHT22;3460;52.028;8.916;2023-10-13T02:25:55;15.90;99.90
6843;DHT22;3460;52.028;8.916;2023-10-13T02:28:26;16.00;99.90
6843;DHT22;3460;52.028;8.916;2023-10-13T02:30:55;15.90;99.90
6843;DHT22;3460;52.028;8.916;2023-10-13T02:33:23;15.90;99.90
6843;DHT22;3460;52.028;8.916;2023-10-13T02:35:56;15.90;99.90
6843;DHT22;3460;52.028;8.916;2023-10-13T02:38:23;15.90;99.90
6843;DHT22;3460;52.028;8.916;2023-10-13T02:40:59;15.90;99.90
6843;DHT22;3460;52.028;8.916;2023-10-13T02:43:32;16.00;99.90
6843;DHT22;3460;52.028;8.916;2023-10-13T02:46:00;16.00;99.90
6843;DHT22;3460;52.028;8.916;2023-10-13T02:48:28;15.90;99.90
6843;DHT22;3460;52.028;8.916;2023-10-13T02:50:57;15.90;99.90
6843;DHT22;3460;52.028;8.916;2023-10-13T02:53:28;16.00;99.90
6843;DHT22;3460;52.028;8.916;2023-10-13T02:55:54;16.00;99.90
6843;DHT22;3460;52.028;8.916;2023-10-13T02:58:22;15.90;99.90
6843;DHT22;3460;52.028;8.916;2023-10-13T03:00:48;15.90;99.90
6843;DHT22;3460;52.028;8.916;2023-10-13T03:03:16;15.90;99.90
6843;DHT22;3460;52.028;8.916;2023-10-13T03:05:44;15.90;99.90
6843;DHT22;3460;52.028;8.916;2023-10-13T03:08:11;15.90;99.90
6843;DHT22;3460;52.028;8.916;2023-10-13T03:10:43;16.00;99.90
6843;DHT22;3460;52.028;8.916;2023-10-13T03:13:15;16.00;99.90
6843;DHT22;3460;52.028;8.916;2023-10-13T03:15:41;16.00;99.90
6843;DHT22;3460;52.028;8.916;2023-10-13T03:18:13;16.00;99.90
6843;DHT22;3460;52.028;8.916;2023-10-13T03:20:45;16.00;99.90
6843;DHT22;3460;52.028;8.916;2023-10-13T03:23:16;16.00;99.90
6843;DHT22;3460;52.028;8.916;2023-10-13T03:25:41;15.90;99.90
6843;DHT22;3460;52.028;8.916;2023-10-13T03:28:09;16.00;99.90
6843;DHT22;3460;52.028;8.916;2023-10-13T03:30:39;16.00;99.90
6843;DHT22;3460;52.028;8.916;2023-10-13T03:33:08;16.00;99.90
6843;DHT22;3460;52.028;8.916;2023-10-13T03:35:37;16.00;99.90
6843;DHT22;3460;52.028;8.916;2023-10-13T03:38:05;16.00;99.90
6843;DHT22;3460;52.028;8.916;2023-10-13T03:40:40;16.00;99.90
6843;DHT22;3460;52.028;8.916;2023-10-13T03:43:06;15.90;99.90
6843;DHT22;3460;52.028;8.916;2023-10-13T03:45:36;15.90;99.90
6843;DHT22;3460;52.028;8.916;2023-10-13T03:48:05;16.00;99.90
6843;DHT22;3460;52.028;8.916;2023-10-13T03:50:35;16.00;99.90
6843;DHT22;3460;52.028;8.916;2023-10-13T03:53:04;16.00;99.90
6843;DHT22;3460;52.028;8.916;2023-10-13T03:55:38;16.00;99.90
6843;DHT22;3460;52.028;8.916;2023-10-13T03:58:05;16.10;99.90
6843;DHT22;3460;52.028;8.916;2023-10-13T04:00:32;16.00;99.90
6843;DHT22;3460;52.028;8.916;2023-10-13T04:03:01;16.00;99.90
6843;DHT22;3460;52.028;8.916;2023-10-13T04:05:36;16.10;99.90
6843;DHT22;3460;52.028;8.916;2023-10-13T04:08:08;16.10;99.90
6843;DHT22;3460;52.028;8.916;2023-10-13T04:10:52;16.10;99.90
6843;DHT22;3460;52.028;8.916;2023-10-13T04:13:37;16.10;99.90
6843;DHT22;3460;52.028;8.916;2023-10-13T04:16:21;16.10;99.90
6843;DHT22;3460;52.028;8.916;2023-10-13T04:19:16;16.10;99.90
6843;DHT22;3460;52.028;8.916;2023-10-13T04:21:49;16.10;99.90
6843;DHT22;3460;52.028;8.916;2023-10-13T04:24:25;16.10;99.90
6843;DHT22;3460;52.028;8.916;2023-10-13T04:27:25;16.20;99.90
6843;DHT22;3460;52.028;8.916;2023-10-13T04:30:12;16.20;99.90
6843;DHT22;3460;52.028;8.916;2023-10-13T04:32:50;16.20;99.90
6843;DHT22;3460;52.028;8.916;2023-10-13T04:35:30;16.30;99.90
6843;DHT22;3460;52.028;8.916;2023-10-13T04:38:01;16.30;99.90
6843;DHT22;3460;52.028;8.916;2023-10-13T04:40:41;16.30;99.90
6843;DHT22;3460;52.028;8.916;2023-10-13T04:43:24;16.20;99.90
6843;DHT22;3460;52.028;8.916;2023-10-13T04:45:59;16.20;99.90
6843;DHT22;3460;52.028;8.916;2023-10-13T04:48:40;16.30;99.90
6843;DHT22;3460;52.028;8.916;2023-10-13T04:51:12;16.30;99.90
6843;DHT22;3460;52.028;8.916;2023-10-13T04:53:59;16.30;99.90
6843;DHT22;3460;52.028;8.916;2023-10-13T04:56:31;16.40;99.90
6843;DHT22;3460;52.028;8.916;2023-10-13T04:59:15;16.40;99.90
6843;DHT22;3460;52.028;8.916;2023-10-13T05:02:00;16.40;99.90
6843;DHT22;3460;52.028;8.916;2023-10-13T05:04:41;16.40;99.90
6843;DHT22;3460;52.028;8.916;2023-10-13T05:07:22;16.40;99.90
6843;DHT22;3460;52.028;8.916;2023-10-13T05:10:06;16.40;99.90
6843;DHT22;3460;52.028;8.916;2023-10-13T05:12:52;16.40;99.90
6843;DHT22;3460;52.028;8.916;2023-10-13T05:15:43;16.40;99.90
6843;DHT22;3460;52.028;8.916;2023-10-13T05:18:27;16.40;99.90
6843;DHT22;3460;52.028;8.916;2023-10-13T05:21:11;16.40;99.90
6843;DHT22;3460;52.028;8.916;2023-10-13T05:23:55;16.40;99.90
6843;DHT22;3460;52.028;8.916;2023-10-13T05:26:39;16.40;99.90
6843;DHT22;3460;52.028;8.916;2023-10-13T05:29:25;16.40;99.90
6843;DHT22;3460;52.028;8.916;2023-10-13T05:32:08;16.30;99.90
6843;DHT22;3460;52.028;8.916;2023-10-13T05:34:52;16.40;99.90
6843;DHT22;3460;52.028;8.916;2023-10-13T05:37:36;16.40;99.90
6843;DHT22;3460;52.028;8.916;2023-10-13T05:40:20;16.40;99.90
6843;DHT22;3460;52.028;8.916;2023-10-13T05:43:04;16.40;99.90
6843;DHT22;3460;52.028;8.916;2023-10-13T05:45:50;16.40;99.90
6843;DHT22;3460;52.028;8.916;2023-10-13T05:48:50;16.40;99.90
6843;DHT22;3460;52.028;8.916;2023-10-13T05:51:35;16.40;99.90
6843;DHT22;3460;52.028;8.916;2023-10-13T05:54:14;16.40;99.90
6843;DHT22;3460;52.028;8.916;2023-10-13T05:56:58;16.40;99.90
6843;DHT22;3460;52.028;8.916;2023-10-13T05:59:42;16.30;99.90
6843;DHT22;3460;52.028;8.916;2023-10-13T06:02:28;16.40;99.90
6843;DHT22;3460;52.028;8.916;2023-10-13T06:05:13;16.40;99.90
6843;DHT22;3460;52.028;8.916;2023-10-13T06:07:58;16.40;99.90
6843;DHT22;3460;52.028;8.916;2023-10-13T06:10:43;16.40;99.90
6843;DHT22;3460;52.028;8.916;2023-10-13T06:13:28;16.40;99.90
6843;DHT22;3460;52.028;8.916;2023-10-13T06:16:14;16.30;99.90
6843;DHT22;3460;52.028;8.916;2023-10-13T06:18:57;16.40;99.90
6843;DHT22;3460;52.028;8.916;2023-10-13T06:21:41;16.40;99.90
6843;DHT22;3460;52.028;8.916;2023-10-13T06:24:26;16.40;99.90
6843;DHT22;3460;52.028;8.916;2023-10-13T06:27:10;16.40;99.90
6843;DHT22;3460;52.028;8.916;2023-10-13T06:30:00;16.40;99.90
6843;DHT22;3460;52.028;8.916;2023-10-13T06:32:28;16.30;99.90
6843;DHT22;3460;52.028;8.916;2023-10-13T06:34:57;16.30;99.90
6843;DHT22;3460;52.028;8.916;2023-10-13T06:37:24;16.30;99.90
6843;DHT22;3460;52.028;8.916;2023-10-13T06:39:53;16.20;99.90
6843;DHT22;3460;52.028;8.916;2023-10-13T06:42:22;16.10;99.90
6843;DHT22;3460;52.028;8.916;2023-10-13T06:44:53;16.10;99.90
6843;DHT22;3460;52.028;8.916;2023-10-13T06:47:20;16.10;99.90
6843;DHT22;3460;52.028;8.916;2023-10-13T06:49:47;16.20;99.90
6843;DHT22;3460;52.028;8.916;2023-10-13T06:52:21;16.20;99.90
6843;DHT22;3460;52.028;8.916;2023-10-13T06:54:50;16.10;99.90
6843;DHT22;3460;52.028;8.916;2023-10-13T06:57:17;16.10;99.90
6843;DHT22;3460;52.028;8.916;2023-10-13T06:59:46;16.20;99.90
6843;DHT22;3460;52.028;8.916;2023-10-13T07:02:14;16.20;99.90
6843;DHT22;3460;52.028;8.916;2023-10-13T07:04:49;16.20;99.90
6843;DHT22;3460;52.028;8.916;2023-10-13T07:07:23;16.20;99.90
6843;DHT22;3460;52.028;8.916;2023-10-13T07:09:50;16.30;99.90
6843;DHT22;3460;52.028;8.916;2023-10-13T07:12:23;16.40;99.90
6843;DHT22;3460;52.028;8.916;2023-10-13T07:14:52;16.50;99.90
6843;DHT22;3460;52.028;8.916;2023-10-13T07:17:25;16.60;99.90
6843;DHT22;3460;52.028;8.916;2023-10-13T07:19:52;16.70;99.90
6843;DHT22;3460;52.028;8.916;2023-10-13T07:22:23;16.70;99.90
6843;DHT22;3460;52.028;8.916;2023-10-13T07:24:53;16.80;99.90
6843;DHT22;3460;52.028;8.916;2023-10-13T07:27:23;16.80;99.90
6843;DHT22;3460;52.028;8.916;2023-10-13T07:29:50;16.90;99.90
6843;DHT22;3460;52.028;8.916;2023-10-13T07:32:40;17.00;99.90
6843;DHT22;3460;52.028;8.916;2023-10-13T07:35:11;17.10;99.90
6843;DHT22;3460;52.028;8.916;2023-10-13T07:37:39;17.10;99.90
6843;DHT22;3460;52.028;8.916;2023-10-13T07:40:08;17.20;99.90
6843;DHT22;3460;52.028;8.916;2023-10-13T07:42:56;17.30;99.90
6843;DHT22;3460;52.028;8.916;2023-10-13T07:45:26;17.30;99.90
6843;DHT22;3460;52.028;8.916;2023-10-13T07:48:01;17.40;99.90
6843;DHT22;3460;52.028;8.916;2023-10-13T07:50:33;17.40;99.90
6843;DHT22;3460;52.028;8.916;2023-10-13T07:53:02;17.40;99.90
6843;DHT22;3460;52.028;8.916;2023-10-13T07:55:45;17.50;99.90
6843;DHT22;3460;52.028;8.916;2023-10-13T07:58:12;17.50;99.90
6843;DHT22;3460;52.028;8.916;2023-10-13T08:00:39;17.50;99.90
6843;DHT22;3460;52.028;8.916;2023-10-13T08:03:13;17.60;99.90
6843;DHT22;3460;52.028;8.916;2023-10-13T08:06:01;17.50;99.90
6843;DHT22;3460;52.028;8.916;2023-10-13T08:08:33;17.50;99.90
6843;DHT22;3460;52.028;8.916;2023-10-13T08:11:10;17.50;99.90
6843;DHT22;3460;52.028;8.916;2023-10-13T08:13:50;17.60;99.90
6843;DHT22;3460;52.028;8.916;2023-10-13T08:16:19;17.70;99.90
6843;DHT22;3460;52.028;8.916;2023-10-13T08:18:48;17.70;99.90
6843;DHT22;3460;52.028;8.916;2023-10-13T08:21:15;17.70;99.90
6843;DHT22;3460;52.028;8.916;2023-10-13T08:23:49;17.80;99.90
6843;DHT22;3460;52.028;8.916;2023-10-13T08:26:31;17.80;99.90
6843;DHT22;3460;52.028;8.916;2023-10-13T08:29:12;17.80;99.90
6843;DHT22;3460;52.028;8.916;2023-10-13T08:31:56;17.80;99.90
6843;DHT22;3460;52.028;8.916;2023-10-13T08:34:39;17.80;99.90
6843;DHT22;3460;52.028;8.916;2023-10-13T08:37:26;17.90;99.90
6843;DHT22;3460;52.028;8.916;2023-10-13T08:39:57;18.00;99.90
6843;DHT22;3460;52.028;8.916;2023-10-13T08:42:44;18.00;99.90
6843;DHT22;3460;52.028;8.916;2023-10-13T08:45:18;18.10;99.90
6843;DHT22;3460;52.028;8.916;2023-10-13T08:48:08;18.10;99.90
6843;DHT22;3460;52.028;8.916;2023-10-13T08:50:42;18.20;99.90
6843;DHT22;3460;52.028;8.916;2023-10-13T08:53:15;18.30;99.90
6843;DHT22;3460;52.028;8.916;2023-10-13T08:55:56;18.40;99.90
6843;DHT22;3460;52.028;8.916;2023-10-13T08:58:34;18.40;99.90
6843;DHT22;3460;52.028;8.916;2023-10-13T09:01:28;18.40;99.90
6843;DHT22;3460;52.028;8.916;2023-10-13T09:04:03;18.50;99.90
6843;DHT22;3460;52.028;8.916;2023-10-13T09:06:49;18.60;99.90
6843;DHT22;3460;52.028;8.916;2023-10-13T09:09:48;18.70;99.90
6843;DHT22;3460;52.028;8.916;2023-10-13T09:12:38;18.80;99.90
6843;DHT22;3460;52.028;8.916;2023-10-13T09:15:29;18.80;99.90
6843;DHT22;3460;52.028;8.916;2023-10-13T09:18:25;18.90;99.90
6843;DHT22;3460;52.028;8.916;2023-10-13T09:21:05;18.90;99.90
6843;DHT22;3460;52.028;8.916;2023-10-13T09:23:55;18.90;99.90
6843;DHT22;3460;52.028;8.916;2023-10-13T09:26:41;19.00;99.90
6843;DHT22;3460;52.028;8.916;2023-10-13T09:29:16;19.10;99.90
6843;DHT22;3460;52.028;8.916;2023-10-13T09:31:46;19.20;99.90
6843;DHT22;3460;52.028;8.916;2023-10-13T09:34:21;19.10;99.90
6843;DHT22;3460;52.028;8.916;2023-10-13T09:36:49;19.20;99.90
6843;DHT22;3460;52.028;8.916;2023-10-13T09:39:23;19.30;99.90
6843;DHT22;3460;52.028;8.916;2023-10-13T09:42:00;19.30;99.90
6843;DHT22;3460;52.028;8.916;2023-10-13T09:44:27;19.40;99.90
6843;DHT22;3460;52.028;8.916;2023-10-13T09:47:00;19.40;99.90
6843;DHT22;3460;52.028;8.916;2023-10-13T09:49:39;19.40;99.90
6843;DHT22;3460;52.028;8.916;2023-10-13T09:52:18;19.40;99.90
6843;DHT22;3460;52.028;8.916;2023-10-13T09:55:04;19.40;99.90
6843;DHT22;3460;52.028;8.916;2023-10-13T09:57:38;19.40;99.90
6843;DHT22;3460;52.028;8.916;2023-10-13T10:00:13;19.50;99.90
6843;DHT22;3460;52.028;8.916;2023-10-13T10:03:10;19.50;99.90
6843;DHT22;3460;52.028;8.916;2023-10-13T10:05:57;19.50;99.90
6843;DHT22;3460;52.028;8.916;2023-10-13T10:08:32;19.60;99.90
6843;DHT22;3460;52.028;8.916;2023-10-13T10:11:34;19.60;99.90
6843;DHT22;3460;52.028;8.916;2023-10-13T10:14:15;19.60;99.90
6843;DHT22;3460;52.028;8.916;2023-10-13T10:17:00;19.70;99.90
6843;DHT22;3460;52.028;8.916;2023-10-13T10:19:31;19.70;99.90
6843;DHT22;3460;52.028;8.916;2023-10-13T10:22:01;19.80;99.90
6843;DHT22;3460;52.028;8.916;2023-10-13T10:24:36;19.80;99.90
6843;DHT22;3460;52.028;8.916;2023-10-13T10:27:03;19.80;99.90
6843;DHT22;3460;52.028;8.916;2023-10-13T10:29:31;19.80;99.90
6843;DHT22;3460;52.028;8.916;2023-10-13T10:31:59;20.10;99.90
6843;DHT22;3460;52.028;8.916;2023-10-13T10:34:32;20.10;99.90
6843;DHT22;3460;52.028;8.916;2023-10-13T10:37:02;20.20;99.90
6843;DHT22;3460;52.028;8.916;2023-10-13T10:39:35;20.30;99.90
6843;DHT22;3460;52.028;8.916;2023-10-13T10:42:11;20.30;99.90
6843;DHT22;3460;52.028;8.916;2023-10-13T10:44:49;20.30;99.90
6843;DHT22;3460;52.028;8.916;2023-10-13T10:47:22;20.20;99.90
6843;DHT22;3460;52.028;8.916;2023-10-13T10:49:58;20.40;99.90
6843;DHT22;3460;52.028;8.916;2023-10-13T11:09:31;20.50;99.90
6843;DHT22;3460;52.028;8.916;2023-10-13T11:12:10;21.00;99.90
6843;DHT22;3460;52.028;8.916;2023-10-13T11:14:41;21.20;99.90
6843;DHT22;3460;52.028;8.916;2023-10-13T11:17:08;21.30;99.90
6843;DHT22;3460;52.028;8.916;2023-10-13T11:19:44;21.60;99.90
6843;DHT22;3460;52.028;8.916;2023-10-13T11:22:11;21.50;99.90
6843;DHT22;3460;52.028;8.916;2023-10-13T11:24:56;21.60;99.90
6843;DHT22;3460;52.028;8.916;2023-10-13T11:27:28;21.70;99.90
6843;DHT22;3460;52.028;8.916;2023-10-13T11:30:10;21.80;99.90
6843;DHT22;3460;52.028;8.916;2023-10-13T11:32:40;21.70;99.90
6843;DHT22;3460;52.028;8.916;2023-10-13T11:35:08;21.80;99.90
6843;DHT22;3460;52.028;8.916;2023-10-13T11:37:46;21.90;99.90
6843;DHT22;3460;52.028;8.916;2023-10-13T11:40:23;21.90;99.90
6843;DHT22;3460;52.028;8.916;2023-10-13T11:43:04;22.00;99.90
6843;DHT22;3460;52.028;8.916;2023-10-13T11:45:30;22.00;99.90
6843;DHT22;3460;52.028;8.916;2023-10-13T11:47:57;21.90;99.90
6843;DHT22;3460;52.028;8.916;2023-10-13T11:50:25;21.90;99.90
6843;DHT22;3460;52.028;8.916;2023-10-13T11:53:00;22.00;71.90
6843;DHT22;3460;52.028;8.916;2023-10-13T11:55:28;22.00;1.00
6843;DHT22;3460;52.028;8.916;2023-10-13T11:57:55;22.00;74.20
6843;DHT22;3460;52.028;8.916;2023-10-13T12:00:24;21.90;47.30
6843;DHT22;3460;52.028;8.916;2023-10-13T12:03:12;22.00;55.30
6843;DHT22;3460;52.028;8.916;2023-10-13T12:05:56;22.20;53.20
6843;DHT22;3460;52.028;8.916;2023-10-13T12:08:44;22.30;91.30
6843;DHT22;3460;52.028;8.916;2023-10-13T12:11:18;22.50;1.00
6843;DHT22;3460;52.028;8.916;2023-10-13T12:13:57;22.50;48.40
6843;DHT22;3460;52.028;8.916;2023-10-13T12:16:36;22.50;1.00
6843;DHT22;3460;52.028;8.916;2023-10-13T12:19:03;22.40;1.00
6843;DHT22;3460;52.028;8.916;2023-10-13T12:21:35;22.60;99.90
6843;DHT22;3460;52.028;8.916;2023-10-13T12:24:04;22.60;99.90
6843;DHT22;3460;52.028;8.916;2023-10-13T12:26:38;22.70;99.90
6843;DHT22;3460;52.028;8.916;2023-10-13T12:29:07;22.60;1.00
6843;DHT22;3460;52.028;8.916;2023-10-13T12:31:44;22.70;1.00
6843;DHT22;3460;52.028;8.916;2023-10-13T12:34:17;22.90;1.00
6843;DHT22;3460;52.028;8.916;2023-10-13T12:36:56;22.80;27.00
6843;DHT22;3460;52.028;8.916;2023-10-13T12:39:31;22.80;99.90
6843;DHT22;3460;52.028;8.916;2023-10-13T12:42:17;22.90;1.00
6843;DHT22;3460;52.028;8.916;2023-10-13T12:45:01;22.70;99.90
6843;DHT22;3460;52.028;8.916;2023-10-13T12:47:45;22.80;99.90
6843;DHT22;3460;52.028;8.916;2023-10-13T12:50:30;22.90;99.90
6843;DHT22;3460;52.028;8.916;2023-10-13T12:53:09;22.70;99.90
6843;DHT22;3460;52.028;8.916;2023-10-13T12:55:40;22.70;1.00
6843;DHT22;3460;52.028;8.916;2023-10-13T12:58:08;22.70;99.90
6843;DHT22;3460;52.028;8.916;2023-10-13T13:00:35;22.70;99.90
6843;DHT22;3460;52.028;8.916;2023-10-13T13:03:02;22.80;99.90
6843;DHT22;3460;52.028;8.916;2023-10-13T13:05:36;22.90;99.90
6843;DHT22;3460;52.028;8.916;2023-10-13T13:08:10;23.00;1.00
6843;DHT22;3460;52.028;8.916;2023-10-13T13:10:38;23.00;1.00
6843;DHT22;3460;52.028;8.916;2023-10-13T13:13:08;23.00;99.90
6843;DHT22;3460;52.028;8.916;2023-10-13T13:15:35;22.90;99.90
6843;DHT22;3460;52.028;8.916;2023-10-13T13:18:02;22.90;1.00
6843;DHT22;3460;52.028;8.916;2023-10-13T13:20:37;23.00;66.10
6843;DHT22;3460;52.028;8.916;2023-10-13T13:23:18;23.10;1.00
6843;DHT22;3460;52.028;8.916;2023-10-13T13:25:45;23.10;1.00
6843;DHT22;3460;52.028;8.916;2023-10-13T13:28:14;23.10;1.00
6843;DHT22;3460;52.028;8.916;2023-10-13T13:30:41;22.90;99.90
6843;DHT22;3460;52.028;8.916;2023-10-13T13:33:08;23.00;1.00
6843;DHT22;3460;52.028;8.916;2023-10-13T13:35:37;23.00;1.00
6843;DHT22;3460;52.028;8.916;2023-10-13T13:38:04;22.90;99.90
6843;DHT22;3460;52.028;8.916;2023-10-13T13:40:42;23.00;99.90
6843;DHT22;3460;52.028;8.916;2023-10-13T13:43:15;22.90;99.90
6843;DHT22;3460;52.028;8.916;2023-10-13T13:45:57;22.90;1.00
6843;DHT22;3460;52.028;8.916;2023-10-13T13:48:26;22.80;1.00
6843;DHT22;3460;52.028;8.916;2023-10-13T13:50:54;22.90;32.90
6843;DHT22;3460;52.028;8.916;2023-10-13T13:53:29;22.90;1.00
6843;DHT22;3460;52.028;8.916;2023-10-13T13:56:00;22.90;99.90
6843;DHT22;3460;52.028;8.916;2023-10-13T13:58:29;23.00;1.00
6843;DHT22;3460;52.028;8.916;2023-10-13T14:01:00;23.00;99.90
6843;DHT22;3460;52.028;8.916;2023-10-13T14:03:38;23.10;1.00
6843;DHT22;3460;52.028;8.916;2023-10-13T14:06:10;23.20;1.00
6843;DHT22;3460;52.028;8.916;2023-10-13T14:08:42;23.20;99.90
6843;DHT22;3460;52.028;8.916;2023-10-13T14:11:11;23.20;99.90
6843;DHT22;3460;52.028;8.916;2023-10-13T14:13:48;23.10;99.90
6843;DHT22;3460;52.028;8.916;2023-10-13T14:16:15;23.00;1.00
6843;DHT22;3460;52.028;8.916;2023-10-13T14:18:46;22.90;99.90
6843;DHT22;3460;52.028;8.916;2023-10-13T14:21:14;22.90;1.00
6843;DHT22;3460;52.028;8.916;2023-10-13T14:23:44;22.80;1.00
6843;DHT22;3460;52.028;8.916;2023-10-13T14:26:12;22.80;1.00
6843;DHT22;3460;52.028;8.916;2023-10-13T14:28:39;22.70;99.90
6843;DHT22;3460;52.028;8.916;2023-10-13T14:31:18;22.80;1.00
6843;DHT22;3460;52.028;8.916;2023-10-13T14:33:46;22.70;99.90
6843;DHT22;3460;52.028;8.916;2023-10-13T14:36:13;22.70;1.00
6843;DHT22;3460;52.028;8.916;2023-10-13T14:38:45;22.60;99.90
6843;DHT22;3460;52.028;8.916;2023-10-13T14:41:15;22.60;1.00
6843;DHT22;3460;52.028;8.916;2023-10-13T14:43:43;22.50;1.00
6843;DHT22;3460;52.028;8.916;2023-10-13T14:46:13;22.50;1.00
6843;DHT22;3460;52.028;8.916;2023-10-13T14:48:42;22.50;99.90
6843;DHT22;3460;52.028;8.916;2023-10-13T14:51:10;22.50;1.00
6843;DHT22;3460;52.028;8.916;2023-10-13T14:53:39;22.30;1.00
6843;DHT22;3460;52.028;8.916;2023-10-13T14:56:10;22.30;99.90
6843;DHT22;3460;52.028;8.916;2023-10-13T14:58:37;22.30;99.90
6843;DHT22;3460;52.028;8.916;2023-10-13T15:01:11;22.20;1.00
6843;DHT22;3460;52.028;8.916;2023-10-13T15:03:42;22.20;99.90
6843;DHT22;3460;52.028;8.916;2023-10-13T15:06:15;22.10;1.00
6843;DHT22;3460;52.028;8.916;2023-10-13T15:08:43;22.00;83.60
6843;DHT22;3460;52.028;8.916;2023-10-13T15:11:11;21.90;99.90
6843;DHT22;3460;52.028;8.916;2023-10-13T15:13:39;21.90;99.90
6843;DHT22;3460;52.028;8.916;2023-10-13T15:16:13;21.90;99.90
6843;DHT22;3460;52.028;8.916;2023-10-13T15:18:44;22.00;99.90
6843;DHT22;3460;52.028;8.916;2023-10-13T15:21:11;22.00;39.10
6843;DHT22;3460;52.028;8.916;2023-10-13T15:23:39;22.00;99.90
6843;DHT22;3460;52.028;8.916;2023-10-13T15:26:09;22.00;1.00
6843;DHT22;3460;52.028;8.916;2023-10-13T15:28:36;21.90;93.70
6843;DHT22;3460;52.028;8.916;2023-10-13T15:31:11;22.00;99.90
6843;DHT22;3460;52.028;8.916;2023-10-13T15:33:50;21.90;99.90
6843;DHT22;3460;52.028;8.916;2023-10-13T15:36:20;21.80;99.90
6843;DHT22;3460;52.028;8.916;2023-10-13T15:38:47;21.80;99.90
6843;DHT22;3460;52.028;8.916;2023-10-13T15:41:20;21.80;99.90
6843;DHT22;3460;52.028;8.916;2023-10-13T15:43:47;21.80;1.00
6843;DHT22;3460;52.028;8.916;2023-10-13T15:46:17;21.80;1.00
6843;DHT22;3460;52.028;8.916;2023-10-13T15:48:46;21.80;70.90
6843;DHT22;3460;52.028;8.916;2023-10-13T15:51:14;21.80;1.00
6843;DHT22;3460;52.028;8.916;2023-10-13T15:53:42;21.80;1.00
6843;DHT22;3460;52.028;8.916;2023-10-13T15:56:10;21.70;1.00
6843;DHT22;3460;52.028;8.916;2023-10-13T15:58:39;21.60;1.00
6843;DHT22;3460;52.028;8.916;2023-10-13T16:01:09;21.60;1.00
6843;DHT22;3460;52.028;8.916;2023-10-13T16:03:38;21.60;1.00
6843;DHT22;3460;52.028;8.916;2023-10-13T16:06:05;21.50;37.40
6843;DHT22;3460;52.028;8.916;2023-10-13T16:08:37;21.50;12.10
6843;DHT22;3460;52.028;8.916;2023-10-13T16:11:05;21.50;25.40
6843;DHT22;3460;52.028;8.916;2023-10-13T16:13:34;21.50;99.90
6843;DHT22;3460;52.028;8.916;2023-10-13T16:16:01;21.50;99.90
6843;DHT22;3460;52.028;8.916;2023-10-13T16:18:28;21.40;68.90
6843;DHT22;3460;52.028;8.916;2023-10-13T16:20:58;21.40;99.90
6843;DHT22;3460;52.028;8.916;2023-10-13T16:23:25;21.40;99.90
6843;DHT22;3460;52.028;8.916;2023-10-13T16:25:54;21.40;99.90
6843;DHT22;3460;52.028;8.916;2023-10-13T16:28:24;21.30;13.40
6843;DHT22;3460;52.028;8.916;2023-10-13T16:30:50;21.40;99.90
6843;DHT22;3460;52.028;8.916;2023-10-13T16:33:19;21.40;99.90
6843;DHT22;3460;52.028;8.916;2023-10-13T16:35:46;21.30;99.90
6843;DHT22;3460;52.028;8.916;2023-10-13T16:38:13;21.20;1.00
6843;DHT22;3460;52.028;8.916;2023-10-13T16:40:40;21.20;99.90
6843;DHT22;3460;52.028;8.916;2023-10-13T16:43:08;21.30;94.50
6843;DHT22;3460;52.028;8.916;2023-10-13T16:45:36;21.20;99.90
6843;DHT22;3460;52.028;8.916;2023-10-13T16:48:03;21.20;99.90
6843;DHT22;3460;52.028;8.916;2023-10-13T16:50:32;21.20;99.90
6843;DHT22;3460;52.028;8.916;2023-10-13T16:53:03;21.20;1.00
6843;DHT22;3460;52.028;8.916;2023-10-13T16:55:32;21.20;99.90
6843;DHT22;3460;52.028;8.916;2023-10-13T16:57:58;21.20;99.90
6843;DHT22;3460;52.028;8.916;2023-10-13T17:00:27;21.20;99.90
6843;DHT22;3460;52.028;8.916;2023-10-13T17:02:54;21.20;99.90